F\d Erato — SW8206 — position and weather

sailwx.info

Track history (hours):
 
Tides and Currents Weather Stations Pressure Air Temp Water Temp Dewpoint Dewpoint Depression Visibility Wind Speed Wind Dir Waves Ship Positions

F\d Erato

Last reported at 2016-Feb-13 16:10 UTC. Time now 2016-Feb-13 21:17 UTC.
Position N 37°45' E 023°26'.

Length 35 m; draft 1.8 m.

Type: Ship (hazmat cat B). MMSI: 237034100.

Date/timePositionNaut miles runAvg speedWind from/ knotsBaromVisibWave heightAir tempDewpointWater temp
2016-Feb-13 16:10N 37°45' E 023°26'2 3.7
2016-Feb-13 15:33N 37°44' E 023°23'1716.8
2016-Feb-13 14:33N 37°56' E 023°37'1110.9
2016-Feb-13 13:33N 37°50' E 023°26'2 0.7
2016-Feb-13 10:34N 37°49' E 023°27'6 6.2
2016-Feb-13 09:34N 37°54' E 023°31'1010.2
2016-Feb-13 08:33N 37°45' E 023°26'16 1.0
2016-Feb-12 16:32N 37°57' E 023°39'1616.0
2016-Feb-12 15:34N 37°46' E 023°25'6 6.4
2016-Feb-12 14:33N 37°51' E 023°29'7 6.7
2016-Feb-12 13:34N 37°55' E 023°35'6 1.1
2016-Feb-12 08:33N 37°52' E 023°29'2 1.6
2016-Feb-12 07:34N 37°51' E 023°28'7 6.5
2016-Feb-12 06:33N 37°45' E 023°25'1312.5
2016-Feb-12 05:34N 37°55' E 023°33'7 0.5
2016-Feb-11 16:34N 37°49' E 023°30'0 0.5
2016-Feb-11 15:34N 37°49' E 023°29'3 2.8
2016-Feb-11 14:33N 37°47' E 023°26'1110.9
2016-Feb-11 13:34N 37°56' E 023°35'7 1.5
2016-Feb-11 08:33N 37°51' E 023°28'2 1.8
2016-Feb-11 07:34N 37°50' E 023°27'5 5.2
2016-Feb-11 06:33N 37°45' E 023°25'16 1.1
2016-Feb-10 16:15N 37°57' E 023°39'1521.8
2016-Feb-10 15:33N 37°46' E 023°25'6 5.8
2016-Feb-10 14:33N 37°51' E 023°29'5 5.1
2016-Feb-10 13:34N 37°55' E 023°33'4 4.2
2016-Feb-10 12:34N 37°52' E 023°29'0 0.0
2016-Feb-10 07:34N 37°52' E 023°29'8 7.8
2016-Feb-10 06:34N 37°45' E 023°25'1312.7
2016-Feb-10 05:34N 37°55' E 023°34'5 0.4
2016-Feb-09 16:33N 37°51' E 023°32'5 5.1
2016-Feb-09 15:34N 37°47' E 023°27'1 0.6
2016-Feb-09 14:34N 37°48' E 023°28'1110.8
2016-Feb-09 13:34N 37°56' E 023°37'14 3.4
2016-Feb-09 09:24N 37°45' E 023°26'5 5.9
2016-Feb-09 08:34N 37°49' E 023°29'3 2.8
2016-Feb-09 07:27N 37°47' E 023°26'2 2.5
2016-Feb-09 06:31N 37°45' E 023°25'1111.5
2016-Feb-09 05:34N 37°53' E 023°34'6 0.5
2016-Feb-08 16:34N 37°49' E 023°29'0 0.3
2016-Feb-08 15:33N 37°49' E 023°29'3 2.7
2016-Feb-08 14:34N 37°47' E 023°26'1111.5
2016-Feb-08 13:33N 37°55' E 023°36'7 1.5
2016-Feb-08 08:34N 37°50' E 023°31'0 0.3
2016-Feb-08 07:34N 37°49' E 023°31'6 6.3
2016-Feb-08 06:33N 37°45' E 023°25'1212.0
2016-Feb-08 05:34N 37°54' E 023°35'8 0.6
2016-Feb-07 16:34N 37°48' E 023°28'2 2.4
2016-Feb-07 15:34N 37°49' E 023°30'6 6.4
2016-Feb-07 14:33N 37°45' E 023°25'1515.1
2016-Feb-07 13:34N 37°56' E 023°37'13 4.5
2016-Feb-07 10:34N 37°47' E 023°26'9 9.1
2016-Feb-07 09:34N 37°53' E 023°34'1010.3
2016-Feb-07 08:33N 37°45' E 023°26'1312.9
2016-Feb-07 07:33N 37°55' E 023°36'5 0.4
2016-Feb-06 16:34N 37°52' E 023°29'6 6.1
2016-Feb-06 15:33N 37°47' E 023°26'3 3.0
2016-Feb-06 14:33N 37°50' E 023°28'5 5.1
2016-Feb-06 13:33N 37°54' E 023°31'0 0.1
2016-Feb-06 10:34N 37°54' E 023°32'9 9.3
2016-Feb-06 09:34N 37°46' E 023°25'0 0.3
2016-Feb-06 08:33N 37°46' E 023°25'1514.9
2016-Feb-06 07:33N 37°57' E 023°39'0 0.0
2016-Feb-05 14:19N 37°57' E 023°39'0 0.0
2016-Feb-05 13:33N 37°57' E 023°39'0 0.0
2016-Feb-05 12:33N 37°57' E 023°39'0 0.0
2016-Feb-05 11:33N 37°57' E 023°39'0 0.0
2016-Feb-05 10:33N 37°57' E 023°39'0 0.0
2016-Feb-05 09:33N 37°57' E 023°39'0 0.0
2016-Feb-05 08:33N 37°57' E 023°39'4 0.2
2016-Feb-04 05:34N 37°54' E 023°35'5 0.4
2016-Feb-03 16:33N 37°50' E 023°31'  
Track history (hours):
 
Tides and Currents Weather Stations Pressure Air Temp Water Temp Dewpoint Dewpoint Depression Visibility Wind Speed Wind Dir Waves Ship Positions

F\d Erato

Last reported at 2016-Feb-13 16:10 UTC. Time now 2016-Feb-13 21:17 UTC.
Position N 37°45' E 023°26'.

Length 35 m; draft 1.8 m.

Type: Ship (hazmat cat B). MMSI: 237034100.

Date/timePositionNaut miles runAvg speedWind from/ knotsBaromVisibWave heightAir tempDewpointWater temp
2016-Feb-13 16:10N 37°45' E 023°26'2 3.7
2016-Feb-13 15:33N 37°44' E 023°23'1716.8
2016-Feb-13 14:33N 37°56' E 023°37'1110.9
2016-Feb-13 13:33N 37°50' E 023°26'2 0.7
2016-Feb-13 10:34N 37°49' E 023°27'6 6.2
2016-Feb-13 09:34N 37°54' E 023°31'1010.2
2016-Feb-13 08:33N 37°45' E 023°26'16 1.0
2016-Feb-12 16:32N 37°57' E 023°39'1616.0
2016-Feb-12 15:34N 37°46' E 023°25'6 6.4
2016-Feb-12 14:33N 37°51' E 023°29'7 6.7
2016-Feb-12 13:34N 37°55' E 023°35'6 1.1
2016-Feb-12 08:33N 37°52' E 023°29'2 1.6
2016-Feb-12 07:34N 37°51' E 023°28'7 6.5
2016-Feb-12 06:33N 37°45' E 023°25'1312.5
2016-Feb-12 05:34N 37°55' E 023°33'7 0.5
2016-Feb-11 16:34N 37°49' E 023°30'0 0.5
2016-Feb-11 15:34N 37°49' E 023°29'3 2.8
2016-Feb-11 14:33N 37°47' E 023°26'1110.9
2016-Feb-11 13:34N 37°56' E 023°35'7 1.5
2016-Feb-11 08:33N 37°51' E 023°28'2 1.8
2016-Feb-11 07:34N 37°50' E 023°27'5 5.2
2016-Feb-11 06:33N 37°45' E 023°25'16 1.1
2016-Feb-10 16:15N 37°57' E 023°39'1521.8
2016-Feb-10 15:33N 37°46' E 023°25'6 5.8
2016-Feb-10 14:33N 37°51' E 023°29'5 5.1
2016-Feb-10 13:34N 37°55' E 023°33'4 4.2
2016-Feb-10 12:34N 37°52' E 023°29'0 0.0
2016-Feb-10 07:34N 37°52' E 023°29'8 7.8
2016-Feb-10 06:34N 37°45' E 023°25'1312.7
2016-Feb-10 05:34N 37°55' E 023°34'5 0.4
2016-Feb-09 16:33N 37°51' E 023°32'5 5.1
2016-Feb-09 15:34N 37°47' E 023°27'1 0.6
2016-Feb-09 14:34N 37°48' E 023°28'1110.8
2016-Feb-09 13:34N 37°56' E 023°37'14 3.4
2016-Feb-09 09:24N 37°45' E 023°26'5 5.9
2016-Feb-09 08:34N 37°49' E 023°29'3 2.8
2016-Feb-09 07:27N 37°47' E 023°26'2 2.5
2016-Feb-09 06:31N 37°45' E 023°25'1111.5
2016-Feb-09 05:34N 37°53' E 023°34'6 0.5
2016-Feb-08 16:34N 37°49' E 023°29'0 0.3
2016-Feb-08 15:33N 37°49' E 023°29'3 2.7
2016-Feb-08 14:34N 37°47' E 023°26'1111.5
2016-Feb-08 13:33N 37°55' E 023°36'7 1.5
2016-Feb-08 08:34N 37°50' E 023°31'0 0.3
2016-Feb-08 07:34N 37°49' E 023°31'6 6.3
2016-Feb-08 06:33N 37°45' E 023°25'1212.0
2016-Feb-08 05:34N 37°54' E 023°35'8 0.6
2016-Feb-07 16:34N 37°48' E 023°28'2 2.4
2016-Feb-07 15:34N 37°49' E 023°30'6 6.4
2016-Feb-07 14:33N 37°45' E 023°25'1515.1
2016-Feb-07 13:34N 37°56' E 023°37'13 4.5
2016-Feb-07 10:34N 37°47' E 023°26'9 9.1
2016-Feb-07 09:34N 37°53' E 023°34'1010.3
2016-Feb-07 08:33N 37°45' E 023°26'1312.9
2016-Feb-07 07:33N 37°55' E 023°36'5 0.4
2016-Feb-06 16:34N 37°52' E 023°29'6 6.1
2016-Feb-06 15:33N 37°47' E 023°26'3 3.0
2016-Feb-06 14:33N 37°50' E 023°28'5 5.1
2016-Feb-06 13:33N 37°54' E 023°31'0 0.1
2016-Feb-06 10:34N 37°54' E 023°32'9 9.3
2016-Feb-06 09:34N 37°46' E 023°25'0 0.3
2016-Feb-06 08:33N 37°46' E 023°25'1514.9
2016-Feb-06 07:33N 37°57' E 023°39'0 0.0
2016-Feb-05 14:19N 37°57' E 023°39'0 0.0
2016-Feb-05 13:33N 37°57' E 023°39'0 0.0
2016-Feb-05 12:33N 37°57' E 023°39'0 0.0
2016-Feb-05 11:33N 37°57' E 023°39'0 0.0
2016-Feb-05 10:33N 37°57' E 023°39'0 0.0
2016-Feb-05 09:33N 37°57' E 023°39'0 0.0
2016-Feb-05 08:33N 37°57' E 023°39'4 0.2
2016-Feb-04 05:34N 37°54' E 023°35'5 0.4
2016-Feb-03 16:33N 37°50' E 023°31'  

Dump ship's entire track history